createdAt,value
2018-11-14T00:01:54.320Z,10.50
2018-11-14T00:04:28.335Z,10.40
2018-11-14T00:07:02.364Z,10.40
2018-11-14T00:09:57.058Z,9.90
2018-11-14T00:12:31.073Z,10.00
2018-11-14T00:15:05.756Z,10.20
2018-11-14T00:17:39.827Z,10.30
2018-11-14T00:20:14.274Z,10.20
2018-11-14T00:22:48.895Z,10.30
2018-11-14T00:25:22.875Z,10.30
2018-11-14T00:27:57.052Z,10.10
2018-11-14T00:30:31.099Z,10.10
2018-11-14T00:33:05.329Z,10.10
2018-11-14T00:35:39.380Z,10.10
2018-11-14T00:38:13.356Z,10.10
2018-11-14T00:40:47.363Z,10.00
2018-11-14T00:43:21.463Z,9.80
2018-11-14T00:45:55.470Z,10.00
2018-11-14T00:48:29.506Z,10.10
2018-11-14T00:51:03.516Z,10.00
2018-11-14T00:53:37.536Z,10.00
2018-11-14T00:56:11.619Z,10.00
2018-11-14T00:58:45.632Z,10.00
2018-11-14T01:01:19.744Z,9.90
2018-11-14T01:03:53.832Z,9.90
2018-11-14T01:06:27.824Z,9.90
2018-11-14T01:09:01.909Z,9.90
2018-11-14T01:11:35.881Z,9.90
2018-11-14T01:14:10.539Z,9.90
2018-11-14T01:16:44.647Z,9.80
2018-11-14T01:19:18.669Z,9.60
2018-11-14T01:21:52.684Z,9.50
2018-11-14T01:24:26.701Z,9.60
2018-11-14T01:27:00.759Z,9.70
2018-11-14T01:29:34.780Z,9.70
2018-11-14T01:32:08.792Z,9.80
2018-11-14T01:34:42.831Z,9.70
2018-11-14T01:37:16.821Z,9.50
2018-11-14T01:39:52.028Z,9.50
2018-11-14T01:42:26.027Z,9.50
2018-11-14T01:45:06.331Z,9.50
2018-11-14T01:47:40.339Z,9.50
2018-11-14T01:50:14.331Z,9.50
2018-11-14T01:52:48.327Z,9.40
2018-11-14T01:55:22.476Z,9.40
2018-11-14T01:57:56.481Z,9.40
2018-11-14T02:00:30.487Z,9.40
2018-11-14T02:03:04.667Z,9.40
2018-11-14T02:05:38.668Z,9.30
2018-11-14T02:08:12.732Z,9.30
2018-11-14T02:10:46.793Z,9.00
2018-11-14T02:13:20.805Z,9.00
2018-11-14T02:15:54.778Z,9.10
2018-11-14T02:18:28.780Z,9.00
2018-11-14T02:21:02.888Z,9.10
2018-11-14T02:23:36.972Z,9.10
2018-11-14T02:26:10.968Z,9.10
2018-11-14T02:28:44.992Z,9.00
2018-11-14T02:31:19.012Z,8.80
2018-11-14T02:33:53.121Z,8.50
2018-11-14T02:36:27.115Z,8.40
2018-11-14T02:39:01.209Z,8.50
2018-11-14T02:41:35.231Z,8.50
2018-11-14T02:44:09.267Z,8.30
2018-11-14T02:46:43.373Z,8.40
2018-11-14T02:49:17.380Z,8.50
2018-11-14T02:51:51.512Z,8.60
2018-11-14T02:54:25.524Z,8.60
2018-11-14T02:56:59.528Z,8.60
2018-11-14T02:59:33.536Z,8.60
2018-11-14T03:02:07.691Z,8.70
2018-11-14T03:04:41.758Z,8.70
2018-11-14T03:07:15.761Z,8.60
2018-11-14T03:09:49.824Z,8.60
2018-11-14T03:12:23.886Z,8.70
2018-11-14T03:14:57.873Z,8.70
2018-11-14T03:17:31.904Z,8.60
2018-11-14T03:20:08.585Z,8.70
2018-11-14T03:22:42.584Z,8.60
2018-11-14T03:25:16.694Z,8.40
2018-11-14T03:27:50.684Z,8.30
2018-11-14T03:30:24.760Z,8.50
2018-11-14T03:32:58.756Z,8.50
2018-11-14T03:35:38.040Z,8.50
2018-11-14T03:38:12.028Z,8.50
2018-11-14T03:40:46.115Z,8.60
2018-11-14T03:43:20.152Z,8.40
2018-11-14T03:45:54.212Z,8.20
2018-11-14T03:48:28.216Z,8.20
2018-11-14T03:51:02.223Z,8.10
2018-11-14T03:53:36.229Z,7.60
2018-11-14T03:56:10.419Z,7.60
2018-11-14T03:58:44.584Z,7.80
2018-11-14T04:01:18.605Z,7.90
2018-11-14T04:03:52.648Z,7.90
2018-11-14T04:06:26.689Z,8.10
2018-11-14T04:09:00.756Z,8.00
2018-11-14T04:11:34.848Z,8.10
2018-11-14T04:14:08.912Z,8.10
2018-11-14T04:16:43.080Z,8.10
2018-11-14T04:19:17.116Z,8.10
2018-11-14T04:21:51.148Z,8.10
2018-11-14T04:24:25.205Z,7.50
2018-11-14T04:26:59.240Z,7.40
2018-11-14T04:29:33.392Z,7.40
2018-11-14T04:32:07.417Z,7.70
2018-11-14T04:34:41.440Z,7.80
2018-11-14T04:37:15.432Z,7.80
2018-11-14T04:39:49.491Z,7.90
2018-11-14T04:42:23.616Z,8.00
2018-11-14T04:44:57.633Z,8.00
2018-11-14T04:47:31.648Z,7.90
2018-11-14T04:50:08.912Z,7.90
2018-11-14T04:52:43.368Z,7.90
2018-11-14T04:55:18.519Z,7.90
2018-11-14T04:57:52.568Z,7.90
2018-11-14T05:00:27.063Z,7.90
2018-11-14T05:03:01.070Z,7.90
2018-11-14T05:05:35.092Z,7.90
2018-11-14T05:08:09.089Z,7.90
2018-11-14T05:10:43.113Z,7.90
2018-11-14T05:13:17.108Z,7.90
2018-11-14T05:15:51.192Z,7.70
2018-11-14T05:18:25.200Z,7.70
2018-11-14T05:20:59.235Z,7.80
2018-11-14T05:23:33.234Z,7.70
2018-11-14T05:26:07.324Z,7.60
2018-11-14T05:28:41.466Z,7.60
2018-11-14T05:31:15.473Z,7.50
2018-11-14T05:33:49.499Z,7.70
2018-11-14T05:36:23.548Z,7.70
2018-11-14T05:38:59.335Z,7.80
2018-11-14T05:41:33.460Z,7.80
2018-11-14T05:44:07.503Z,7.80
2018-11-14T05:46:41.560Z,7.90
2018-11-14T05:49:15.643Z,7.80
2018-11-14T05:51:49.665Z,7.90
2018-11-14T05:54:23.771Z,7.90
2018-11-14T05:56:57.792Z,7.90
2018-11-14T05:59:31.862Z,7.90
2018-11-14T06:02:05.934Z,7.90
2018-11-14T06:04:40.012Z,7.80
2018-11-14T06:07:14.164Z,7.90
2018-11-14T06:09:48.172Z,8.00
2018-11-14T06:12:22.191Z,8.10
2018-11-14T06:14:56.236Z,8.00
2018-11-14T06:17:30.256Z,7.80
2018-11-14T06:20:04.523Z,7.60
2018-11-14T06:22:38.549Z,7.60
2018-11-14T06:25:34.869Z,7.50
2018-11-14T06:28:10.240Z,7.70
2018-11-14T06:30:44.360Z,7.70
2018-11-14T06:33:18.384Z,7.60
2018-11-14T06:35:52.404Z,7.70
2018-11-14T06:38:26.479Z,7.80
2018-11-14T06:41:00.516Z,7.70
2018-11-14T06:43:34.524Z,7.70
2018-11-14T06:46:08.553Z,7.60
2018-11-14T06:48:42.556Z,7.60
2018-11-14T06:51:16.651Z,7.60
2018-11-14T06:53:50.654Z,7.40
2018-11-14T06:56:24.785Z,7.40
2018-11-14T06:58:58.920Z,7.00
2018-11-14T07:01:32.959Z,7.10
2018-11-14T07:04:07.011Z,6.70
2018-11-14T07:06:41.059Z,6.80
2018-11-14T07:09:15.168Z,6.80
2018-11-14T07:11:49.283Z,6.90
2018-11-14T07:14:23.280Z,6.80
2018-11-14T07:16:57.390Z,6.80
2018-11-14T07:19:31.371Z,7.00
2018-11-14T07:22:06.476Z,7.10
2018-11-14T07:24:40.556Z,7.20
2018-11-14T07:27:14.559Z,7.20
2018-11-14T07:29:52.283Z,7.30
2018-11-14T07:32:26.315Z,7.30
2018-11-14T07:35:00.369Z,7.40
2018-11-14T07:37:34.488Z,7.40
2018-11-14T07:40:12.095Z,7.40
2018-11-14T07:42:49.920Z,7.40
2018-11-14T07:45:23.964Z,7.50
2018-11-14T07:47:58.171Z,7.40
2018-11-14T07:50:32.220Z,7.50
2018-11-14T07:53:06.372Z,7.50
2018-11-14T07:55:41.452Z,7.50
2018-11-14T07:58:15.503Z,7.60
2018-11-14T08:00:49.556Z,7.60
2018-11-14T08:03:23.676Z,7.60
2018-11-14T08:05:57.975Z,7.60
2018-11-14T08:08:32.146Z,7.70
2018-11-14T08:11:06.956Z,7.80
2018-11-14T08:13:42.524Z,7.70
2018-11-14T08:16:16.548Z,7.80
2018-11-14T08:18:50.668Z,7.90
2018-11-14T08:21:24.748Z,7.80
2018-11-14T08:23:58.752Z,7.80
2018-11-14T08:26:32.823Z,7.80
2018-11-14T08:29:06.895Z,7.90
2018-11-14T08:31:41.807Z,8.00
2018-11-14T08:34:15.865Z,8.00
2018-11-14T08:36:49.883Z,8.10
2018-11-14T08:39:24.045Z,8.00
2018-11-14T08:41:58.072Z,8.10
2018-11-14T08:44:32.068Z,8.10
2018-11-14T08:47:06.492Z,8.10
2018-11-14T08:49:40.527Z,8.00
2018-11-14T08:52:14.624Z,7.90
2018-11-14T08:54:48.665Z,8.00
2018-11-14T08:57:22.776Z,7.80
2018-11-14T08:59:56.766Z,7.70
2018-11-14T09:02:30.811Z,7.70
2018-11-14T09:05:05.317Z,7.70
2018-11-14T09:07:39.431Z,7.70
2018-11-14T09:10:22.527Z,7.70
2018-11-14T09:12:56.632Z,7.70
2018-11-14T09:15:30.642Z,7.90
2018-11-14T09:18:04.718Z,7.90
2018-11-14T09:20:39.052Z,8.00
2018-11-14T09:23:13.253Z,8.00
2018-11-14T09:25:47.252Z,8.00
2018-11-14T09:28:21.302Z,7.90
2018-11-14T09:30:55.296Z,8.00
2018-11-14T09:33:29.330Z,8.00
2018-11-14T09:36:03.409Z,7.90
2018-11-14T09:38:37.559Z,8.00
2018-11-14T09:41:11.768Z,8.10
2018-11-14T09:43:45.792Z,8.10
2018-11-14T09:46:19.795Z,8.10
2018-11-14T09:48:53.865Z,8.20
2018-11-14T09:51:27.901Z,8.20
2018-11-14T09:54:01.948Z,8.30
2018-11-14T09:56:36.081Z,8.40
2018-11-14T09:59:10.041Z,8.30
2018-11-14T10:01:44.051Z,8.10
2018-11-14T10:04:19.188Z,8.00
2018-11-14T10:06:53.336Z,8.10
2018-11-14T10:09:27.359Z,8.00
2018-11-14T10:12:01.360Z,8.00
2018-11-14T10:14:35.454Z,8.10
2018-11-14T10:17:09.475Z,8.00
2018-11-14T10:19:44.595Z,7.90
2018-11-14T10:22:18.603Z,7.80
2018-11-14T10:24:52.677Z,7.80
2018-11-14T10:27:26.731Z,7.70
2018-11-14T10:30:00.767Z,7.70
2018-11-14T10:32:34.883Z,7.70
2018-11-14T10:35:09.820Z,7.80
2018-11-14T10:37:43.990Z,8.00
2018-11-14T10:40:21.010Z,8.00
2018-11-14T10:42:55.196Z,8.10
2018-11-14T10:45:29.183Z,8.00
2018-11-14T10:48:03.271Z,8.10
2018-11-14T10:50:37.322Z,8.20
2018-11-14T10:53:11.406Z,8.20
2018-11-14T10:55:45.461Z,8.20
2018-11-14T10:58:19.514Z,8.30
2018-11-14T11:00:58.962Z,8.40
2018-11-14T11:03:40.121Z,8.50
2018-11-14T11:06:48.600Z,8.60
2018-11-14T11:09:28.075Z,8.60
2018-11-14T11:12:07.539Z,8.40
2018-11-14T11:14:46.927Z,8.30
2018-11-14T11:17:32.107Z,8.30
2018-11-14T11:20:06.696Z,8.30
2018-11-14T11:22:40.831Z,8.50
2018-11-14T11:25:14.860Z,8.50
2018-11-14T11:27:48.969Z,8.50
2018-11-14T11:30:23.067Z,8.30
2018-11-14T11:32:57.204Z,8.30
2018-11-14T11:35:31.264Z,8.40
2018-11-14T11:38:05.614Z,8.30
2018-11-14T11:40:39.643Z,8.50
2018-11-14T11:43:13.637Z,8.40
2018-11-14T11:45:47.731Z,8.30
2018-11-14T11:48:21.735Z,8.40
2018-11-14T11:50:56.846Z,8.60
2018-11-14T11:53:31.464Z,8.80
2018-11-14T11:56:05.956Z,8.70
2018-11-14T11:58:40.192Z,8.50
2018-11-14T12:01:14.403Z,8.60
2018-11-14T12:03:48.496Z,8.60
2018-11-14T12:06:22.639Z,8.40
2018-11-14T12:08:56.622Z,8.10
2018-11-14T12:11:30.665Z,8.10
2018-11-14T12:14:05.672Z,8.10
2018-11-14T12:16:40.783Z,8.10
2018-11-14T12:19:14.969Z,8.10
2018-11-14T12:21:48.922Z,8.10
2018-11-14T12:24:22.935Z,7.90
2018-11-14T12:26:57.012Z,8.00
2018-11-14T12:29:30.972Z,8.00
2018-11-14T12:32:05.468Z,8.00
2018-11-14T12:34:39.580Z,8.00
2018-11-14T12:37:13.540Z,7.90
2018-11-14T12:39:47.555Z,8.10
2018-11-14T12:42:21.604Z,8.10
2018-11-14T12:44:55.677Z,8.20
2018-11-14T12:47:29.709Z,8.10
2018-11-14T12:50:03.796Z,8.10
2018-11-14T12:52:37.869Z,8.20
2018-11-14T12:55:13.139Z,8.10
2018-11-14T12:57:47.247Z,8.00
2018-11-14T13:00:21.671Z,8.10
2018-11-14T13:02:55.679Z,8.20
2018-11-14T13:05:29.792Z,8.30
2018-11-14T13:08:03.802Z,8.20
2018-11-14T13:10:37.919Z,8.10
2018-11-14T13:13:11.923Z,8.30
2018-11-14T13:15:45.936Z,8.30
2018-11-14T13:18:19.931Z,8.40
2018-11-14T13:20:53.980Z,8.40
2018-11-14T13:23:28.072Z,8.50
2018-11-14T13:26:02.104Z,8.60
2018-11-14T13:28:36.297Z,8.80
2018-11-14T13:31:10.352Z,8.70
2018-11-14T13:33:44.408Z,8.80
2018-11-14T13:36:18.476Z,8.80
2018-11-14T13:38:52.492Z,8.90
2018-11-14T13:41:26.596Z,8.90
2018-11-14T13:44:00.619Z,8.90
2018-11-14T13:46:34.660Z,8.80
2018-11-14T13:49:08.772Z,8.70
2018-11-14T13:51:42.784Z,8.60
2018-11-14T13:54:16.996Z,8.40
2018-11-14T13:56:51.032Z,8.30
2018-11-14T13:59:25.056Z,8.20
2018-11-14T14:02:01.300Z,8.30
2018-11-14T14:04:35.315Z,8.20
2018-11-14T14:07:09.376Z,8.20
2018-11-14T14:09:43.396Z,8.00
2018-11-14T14:12:17.448Z,8.00
2018-11-14T14:14:51.699Z,8.10
2018-11-14T14:17:25.733Z,8.10
2018-11-14T14:19:59.836Z,8.20
2018-11-14T14:22:33.894Z,8.30
2018-11-14T14:25:09.456Z,8.30
2018-11-14T14:27:43.600Z,8.30
2018-11-14T14:30:19.221Z,8.40
2018-11-14T14:32:53.287Z,8.30
2018-11-14T14:35:27.384Z,8.30
2018-11-14T14:38:01.404Z,8.40
2018-11-14T14:40:35.447Z,8.50
2018-11-14T14:43:09.489Z,8.50
2018-11-14T14:45:43.502Z,8.60
2018-11-14T14:48:17.507Z,8.60
2018-11-14T14:50:51.580Z,8.50
2018-11-14T14:53:26.087Z,8.40
2018-11-14T14:56:07.806Z,8.40
2018-11-14T14:58:41.806Z,8.40
2018-11-14T15:01:15.844Z,8.30
2018-11-14T15:03:49.903Z,8.40
2018-11-14T15:06:23.968Z,8.40
2018-11-14T15:08:57.982Z,8.40
2018-11-14T15:11:32.008Z,8.30
2018-11-14T15:14:06.256Z,8.40
2018-11-14T15:16:40.428Z,8.40
2018-11-14T15:19:14.456Z,8.30
2018-11-14T15:21:48.468Z,8.40
2018-11-14T15:24:22.476Z,8.40
2018-11-14T15:26:57.203Z,8.30
2018-11-14T15:29:31.259Z,8.40
2018-11-14T15:32:05.276Z,8.40
2018-11-14T15:34:39.387Z,8.40
2018-11-14T15:37:13.419Z,8.40
2018-11-14T15:39:47.456Z,8.40
2018-11-14T15:42:21.581Z,8.10
2018-11-14T15:44:56.660Z,8.00
2018-11-14T15:47:30.691Z,7.90
2018-11-14T15:50:06.373Z,8.10
2018-11-14T15:52:40.886Z,8.00
2018-11-14T15:55:15.899Z,7.90
2018-11-14T15:57:49.988Z,7.80
2018-11-14T16:00:25.421Z,7.90
2018-11-14T16:03:00.716Z,8.00
2018-11-14T16:05:34.798Z,8.20
2018-11-14T16:08:08.800Z,8.40
2018-11-14T16:10:42.861Z,8.40
2018-11-14T16:13:16.947Z,8.40
2018-11-14T16:15:51.112Z,8.50
2018-11-14T16:18:27.284Z,8.60
2018-11-14T16:21:01.903Z,8.50
2018-11-14T16:23:36.064Z,8.60
2018-11-14T16:26:10.172Z,8.60
2018-11-14T16:28:44.191Z,8.50
2018-11-14T16:31:18.352Z,8.40
2018-11-14T16:33:52.388Z,8.40
2018-11-14T16:36:26.427Z,8.30
2018-11-14T16:39:00.439Z,8.20
2018-11-14T16:41:34.883Z,8.10
2018-11-14T16:44:12.296Z,8.20
2018-11-14T16:46:46.328Z,8.20
2018-11-14T16:49:20.337Z,8.20
2018-11-14T16:51:54.368Z,8.20
2018-11-14T16:54:29.504Z,8.10
2018-11-14T16:57:03.568Z,8.00
2018-11-14T16:59:39.708Z,7.90
2018-11-14T17:02:13.729Z,7.80
2018-11-14T17:04:47.789Z,7.80
2018-11-14T17:07:21.811Z,7.80
2018-11-14T17:09:55.815Z,7.80
2018-11-14T17:12:30.352Z,7.80
2018-11-14T17:15:04.714Z,7.80
2018-11-14T17:17:38.660Z,7.90
2018-11-14T17:20:13.941Z,8.00
2018-11-14T17:22:48.780Z,8.00
2018-11-14T17:25:22.879Z,8.00
2018-11-14T17:27:57.094Z,7.90
2018-11-14T17:30:31.099Z,7.90
2018-11-14T17:33:08.463Z,8.00
2018-11-14T17:35:43.657Z,7.90
2018-11-14T17:38:17.698Z,7.80
2018-11-14T17:40:51.752Z,7.80
2018-11-14T17:43:25.955Z,7.90
2018-11-14T17:46:00.027Z,8.10
2018-11-14T17:48:34.068Z,7.80
2018-11-14T17:51:08.095Z,7.70
2018-11-14T17:53:42.234Z,7.70
2018-11-14T17:56:16.248Z,7.80
2018-11-14T17:58:50.323Z,7.80
2018-11-14T18:01:24.374Z,7.90
2018-11-14T18:03:58.417Z,7.90
2018-11-14T18:06:32.611Z,8.00
2018-11-14T18:09:10.197Z,8.10
2018-11-14T18:11:44.260Z,8.10
2018-11-14T18:14:18.400Z,8.20
2018-11-14T18:16:52.436Z,8.20
2018-11-14T19:03:45.199Z,8.20
2018-11-14T19:06:19.433Z,8.60
2018-11-14T19:08:53.552Z,8.50
2018-11-14T19:11:27.680Z,8.60
2018-11-14T19:14:01.820Z,8.60
2018-11-14T19:16:36.131Z,8.50
2018-11-14T19:19:10.334Z,8.50
2018-11-14T19:21:44.407Z,8.50
2018-11-14T19:24:18.451Z,8.50
2018-11-14T19:26:53.483Z,8.40
2018-11-14T19:29:27.651Z,8.50
2018-11-14T19:32:01.828Z,8.40
2018-11-14T19:34:35.812Z,8.40
2018-11-14T19:37:09.963Z,8.30
2018-11-14T19:39:44.024Z,8.30
2018-11-14T19:42:18.064Z,8.40
2018-11-14T19:44:52.438Z,8.30
2018-11-14T19:47:27.520Z,8.30
2018-11-14T19:50:01.564Z,8.30
2018-11-14T19:52:35.683Z,8.30
2018-11-14T19:55:11.335Z,8.30
2018-11-14T19:57:46.364Z,8.30
2018-11-14T20:00:25.636Z,8.30
2018-11-14T20:02:59.816Z,8.20
2018-11-14T20:05:33.868Z,8.10
2018-11-14T20:08:08.092Z,8.10
2018-11-14T20:10:42.216Z,8.20
2018-11-14T20:13:16.254Z,8.20
2018-11-14T20:15:50.296Z,8.20
2018-11-14T20:18:24.424Z,8.10
2018-11-14T20:20:58.552Z,8.20
2018-11-14T20:23:32.587Z,8.20
2018-11-14T20:26:06.767Z,8.20
2018-11-14T20:28:40.808Z,8.20
2018-11-14T20:31:14.819Z,8.20
2018-11-14T20:33:48.927Z,8.30
2018-11-14T20:36:22.972Z,8.20
2018-11-14T20:38:57.007Z,8.20
2018-11-14T20:41:31.035Z,8.30
2018-11-14T20:44:05.192Z,8.30
2018-11-14T20:46:39.263Z,8.20
2018-11-14T20:49:13.498Z,8.30
2018-11-14T20:51:47.485Z,8.10
2018-11-14T20:54:21.503Z,8.00
2018-11-14T20:56:55.515Z,8.00
2018-11-14T20:59:29.734Z,8.10
2018-11-14T21:02:03.759Z,8.10
2018-11-14T21:04:37.872Z,8.10
2018-11-14T21:07:11.976Z,8.10
2018-11-14T21:09:46.152Z,8.10
2018-11-14T21:12:20.146Z,8.20
2018-11-14T21:14:54.253Z,8.10
2018-11-14T21:17:28.628Z,8.00
2018-11-14T21:20:02.816Z,8.00
2018-11-14T21:22:38.130Z,8.00
2018-11-14T21:25:13.560Z,8.00
2018-11-14T21:27:48.199Z,7.90
2018-11-14T21:30:23.563Z,7.90
2018-11-14T21:32:57.666Z,8.00
2018-11-14T21:35:33.124Z,8.00
2018-11-14T21:38:08.455Z,8.10
2018-11-14T21:40:42.656Z,8.10
2018-11-14T21:43:16.698Z,8.10
2018-11-14T21:45:50.743Z,8.00
2018-11-14T21:48:24.779Z,8.00
2018-11-14T21:50:58.822Z,8.00
2018-11-14T21:53:33.044Z,8.00
2018-11-14T21:56:07.096Z,8.10
2018-11-14T21:58:41.203Z,8.10
2018-11-14T22:01:15.348Z,8.10
2018-11-14T22:03:49.366Z,8.10
2018-11-14T22:06:23.543Z,8.10
2018-11-14T22:08:57.544Z,8.10
2018-11-14T22:11:31.730Z,8.10
2018-11-14T22:14:05.979Z,8.30
2018-11-14T22:16:39.991Z,8.50
2018-11-14T22:19:14.181Z,8.40
2018-11-14T22:21:48.183Z,8.40
2018-11-14T22:24:22.408Z,8.30
2018-11-14T22:26:56.423Z,8.20
2018-11-14T22:29:30.453Z,8.10
2018-11-14T22:32:04.508Z,8.20
2018-11-14T22:34:38.556Z,8.10
2018-11-14T22:37:12.624Z,8.10
2018-11-14T22:39:46.639Z,8.00
2018-11-14T22:42:21.588Z,8.00
2018-11-14T22:44:55.642Z,8.10
2018-11-14T22:47:29.624Z,8.10
2018-11-14T22:50:03.928Z,8.10
2018-11-14T22:52:38.307Z,8.10
2018-11-14T22:55:13.399Z,8.10
2018-11-14T22:57:48.280Z,8.10
2018-11-14T23:00:30.140Z,8.00
2018-11-14T23:03:04.191Z,8.00
2018-11-14T23:05:38.214Z,8.10
2018-11-14T23:08:12.409Z,8.00
2018-11-14T23:10:46.439Z,8.00
2018-11-14T23:13:20.451Z,8.00
2018-11-14T23:15:54.483Z,7.90
2018-11-14T23:18:28.483Z,7.90
2018-11-14T23:21:02.584Z,8.00
2018-11-14T23:23:36.596Z,7.90
2018-11-14T23:26:10.775Z,7.90
2018-11-14T23:28:44.771Z,7.90
2018-11-14T23:31:18.799Z,7.90
2018-11-14T23:33:52.947Z,8.00
2018-11-14T23:36:26.942Z,8.00
2018-11-14T23:39:01.106Z,8.00
2018-11-14T23:41:35.116Z,7.90
2018-11-14T23:44:09.411Z,8.00
2018-11-14T23:46:43.464Z,8.00
2018-11-14T23:49:17.450Z,8.00
2018-11-14T23:51:51.570Z,8.00
2018-11-14T23:54:25.567Z,8.00
2018-11-14T23:56:59.582Z,8.00
2018-11-14T23:59:33.587Z,8.00
